sensor_id;sensor_type;location;lat;lon;timestamp;P1;durP1;ratioP1;P2;durP2;ratioP2
34783;SDS011;20998;51.388;7.032;2023-06-26T00:01:16;6.93;;;4.17;;
34783;SDS011;20998;51.388;7.032;2023-06-26T00:03:45;6.10;;;4.10;;
34783;SDS011;20998;51.388;7.032;2023-06-26T00:06:11;6.63;;;4.27;;
34783;SDS011;20998;51.388;7.032;2023-06-26T00:08:37;5.73;;;4.27;;
34783;SDS011;20998;51.388;7.032;2023-06-26T00:11:03;6.93;;;4.70;;
34783;SDS011;20998;51.388;7.032;2023-06-26T00:13:29;8.73;;;4.73;;
34783;SDS011;20998;51.388;7.032;2023-06-26T00:15:55;8.60;;;4.43;;
34783;SDS011;20998;51.388;7.032;2023-06-26T00:18:21;7.37;;;4.80;;
34783;SDS011;20998;51.388;7.032;2023-06-26T00:20:48;6.43;;;4.27;;
34783;SDS011;20998;51.388;7.032;2023-06-26T00:23:15;5.63;;;4.23;;
34783;SDS011;20998;51.388;7.032;2023-06-26T00:25:41;5.30;;;4.03;;
34783;SDS011;20998;51.388;7.032;2023-06-26T00:28:07;6.67;;;4.10;;
34783;SDS011;20998;51.388;7.032;2023-06-26T00:30:33;7.40;;;4.40;;
34783;SDS011;20998;51.388;7.032;2023-06-26T00:32:59;6.57;;;4.67;;
34783;SDS011;20998;51.388;7.032;2023-06-26T00:35:25;5.77;;;4.23;;
34783;SDS011;20998;51.388;7.032;2023-06-26T00:37:51;6.47;;;4.47;;
34783;SDS011;20998;51.388;7.032;2023-06-26T00:40:17;8.80;;;4.23;;
34783;SDS011;20998;51.388;7.032;2023-06-26T00:42:43;8.57;;;4.30;;
34783;SDS011;20998;51.388;7.032;2023-06-26T00:45:09;4.50;;;3.83;;
34783;SDS011;20998;51.388;7.032;2023-06-26T00:47:34;6.53;;;4.50;;
34783;SDS011;20998;51.388;7.032;2023-06-26T00:50:01;8.87;;;4.23;;
34783;SDS011;20998;51.388;7.032;2023-06-26T00:52:27;8.33;;;4.83;;
34783;SDS011;20998;51.388;7.032;2023-06-26T00:54:54;5.07;;;4.10;;
34783;SDS011;20998;51.388;7.032;2023-06-26T00:57:20;6.27;;;4.50;;
34783;SDS011;20998;51.388;7.032;2023-06-26T00:59:46;6.60;;;4.70;;
34783;SDS011;20998;51.388;7.032;2023-06-26T01:02:13;7.23;;;4.30;;
34783;SDS011;20998;51.388;7.032;2023-06-26T01:04:42;4.37;;;3.97;;
34783;SDS011;20998;51.388;7.032;2023-06-26T01:07:11;9.00;;;5.00;;
34783;SDS011;20998;51.388;7.032;2023-06-26T01:09:39;7.83;;;4.43;;
34783;SDS011;20998;51.388;7.032;2023-06-26T01:12:05;5.30;;;3.97;;
34783;SDS011;20998;51.388;7.032;2023-06-26T01:14:31;5.90;;;4.30;;
34783;SDS011;20998;51.388;7.032;2023-06-26T01:16:58;6.60;;;4.50;;
34783;SDS011;20998;51.388;7.032;2023-06-26T01:19:27;6.53;;;3.77;;
34783;SDS011;20998;51.388;7.032;2023-06-26T01:21:59;5.73;;;4.40;;
34783;SDS011;20998;51.388;7.032;2023-06-26T01:24:56;8.27;;;4.30;;
34783;SDS011;20998;51.388;7.032;2023-06-26T01:27:33;5.70;;;4.30;;
34783;SDS011;20998;51.388;7.032;2023-06-26T01:30:01;5.53;;;4.20;;
34783;SDS011;20998;51.388;7.032;2023-06-26T01:32:29;6.63;;;4.40;;
34783;SDS011;20998;51.388;7.032;2023-06-26T01:34:56;6.27;;;4.27;;
34783;SDS011;20998;51.388;7.032;2023-06-26T01:37:22;5.07;;;3.73;;
34783;SDS011;20998;51.388;7.032;2023-06-26T01:39:48;4.77;;;3.60;;
34783;SDS011;20998;51.388;7.032;2023-06-26T01:42:14;5.40;;;4.57;;
34783;SDS011;20998;51.388;7.032;2023-06-26T01:44:42;15.10;;;4.43;;
34783;SDS011;20998;51.388;7.032;2023-06-26T01:47:10;5.07;;;3.83;;
34783;SDS011;20998;51.388;7.032;2023-06-26T01:54:53;5.20;;;3.97;;
34783;SDS011;20998;51.388;7.032;2023-06-26T01:57:38;6.03;;;4.23;;
34783;SDS011;20998;51.388;7.032;2023-06-26T02:00:05;5.83;;;4.00;;
34783;SDS011;20998;51.388;7.032;2023-06-26T02:02:35;7.27;;;4.37;;
34783;SDS011;20998;51.388;7.032;2023-06-26T02:05:01;5.97;;;3.87;;
34783;SDS011;20998;51.388;7.032;2023-06-26T02:07:27;5.50;;;4.00;;
34783;SDS011;20998;51.388;7.032;2023-06-26T02:09:53;6.23;;;4.40;;
34783;SDS011;20998;51.388;7.032;2023-06-26T02:12:19;6.30;;;4.10;;
34783;SDS011;20998;51.388;7.032;2023-06-26T02:14:45;7.17;;;4.00;;
34783;SDS011;20998;51.388;7.032;2023-06-26T02:17:11;5.87;;;4.40;;
34783;SDS011;20998;51.388;7.032;2023-06-26T02:19:37;5.83;;;4.27;;
34783;SDS011;20998;51.388;7.032;2023-06-26T02:22:10;6.50;;;4.40;;
34783;SDS011;20998;51.388;7.032;2023-06-26T02:24:36;7.23;;;4.33;;
34783;SDS011;20998;51.388;7.032;2023-06-26T02:27:02;7.13;;;4.30;;
34783;SDS011;20998;51.388;7.032;2023-06-26T02:29:28;9.93;;;3.97;;
34783;SDS011;20998;51.388;7.032;2023-06-26T02:31:54;8.40;;;3.90;;
34783;SDS011;20998;51.388;7.032;2023-06-26T02:34:20;6.40;;;3.57;;
34783;SDS011;20998;51.388;7.032;2023-06-26T02:36:46;8.00;;;4.13;;
34783;SDS011;20998;51.388;7.032;2023-06-26T02:39:12;7.97;;;4.07;;
34783;SDS011;20998;51.388;7.032;2023-06-26T02:41:39;9.73;;;4.43;;
34783;SDS011;20998;51.388;7.032;2023-06-26T02:44:05;7.53;;;4.40;;
34783;SDS011;20998;51.388;7.032;2023-06-26T02:46:31;5.10;;;4.13;;
34783;SDS011;20998;51.388;7.032;2023-06-26T02:48:58;6.13;;;4.10;;
34783;SDS011;20998;51.388;7.032;2023-06-26T02:51:24;6.13;;;4.10;;
34783;SDS011;20998;51.388;7.032;2023-06-26T02:53:50;5.67;;;4.33;;
34783;SDS011;20998;51.388;7.032;2023-06-26T02:56:16;14.10;;;4.43;;
34783;SDS011;20998;51.388;7.032;2023-06-26T02:58:42;10.53;;;4.53;;
34783;SDS011;20998;51.388;7.032;2023-06-26T03:01:08;7.80;;;4.47;;
34783;SDS011;20998;51.388;7.032;2023-06-26T03:03:34;6.27;;;4.17;;
34783;SDS011;20998;51.388;7.032;2023-06-26T03:06:05;6.37;;;3.87;;
34783;SDS011;20998;51.388;7.032;2023-06-26T03:08:32;6.60;;;4.40;;
34783;SDS011;20998;51.388;7.032;2023-06-26T03:10:58;6.63;;;4.40;;
34783;SDS011;20998;51.388;7.032;2023-06-26T03:13:24;7.57;;;4.33;;
34783;SDS011;20998;51.388;7.032;2023-06-26T03:15:50;7.57;;;5.00;;
34783;SDS011;20998;51.388;7.032;2023-06-26T03:18:16;8.50;;;4.40;;
34783;SDS011;20998;51.388;7.032;2023-06-26T03:20:42;6.57;;;4.60;;
34783;SDS011;20998;51.388;7.032;2023-06-26T03:23:07;5.63;;;4.23;;
34783;SDS011;20998;51.388;7.032;2023-06-26T03:25:33;6.87;;;4.73;;
34783;SDS011;20998;51.388;7.032;2023-06-26T03:27:59;6.30;;;4.60;;
34783;SDS011;20998;51.388;7.032;2023-06-26T03:30:25;7.40;;;4.57;;
34783;SDS011;20998;51.388;7.032;2023-06-26T03:32:51;14.97;;;4.90;;
34783;SDS011;20998;51.388;7.032;2023-06-26T03:35:17;8.03;;;5.10;;
34783;SDS011;20998;51.388;7.032;2023-06-26T03:37:43;6.87;;;5.13;;
34783;SDS011;20998;51.388;7.032;2023-06-26T03:40:09;7.20;;;4.17;;
34783;SDS011;20998;51.388;7.032;2023-06-26T03:42:35;7.87;;;4.37;;
34783;SDS011;20998;51.388;7.032;2023-06-26T03:45:01;7.83;;;4.60;;
34783;SDS011;20998;51.388;7.032;2023-06-26T03:47:27;6.00;;;4.43;;
34783;SDS011;20998;51.388;7.032;2023-06-26T03:49:53;7.27;;;4.60;;
34783;SDS011;20998;51.388;7.032;2023-06-26T03:52:19;5.97;;;4.43;;
34783;SDS011;20998;51.388;7.032;2023-06-26T03:54:44;6.40;;;4.80;;
34783;SDS011;20998;51.388;7.032;2023-06-26T03:57:10;10.20;;;4.20;;
34783;SDS011;20998;51.388;7.032;2023-06-26T03:59:36;9.60;;;4.20;;
34783;SDS011;20998;51.388;7.032;2023-06-26T04:02:02;7.23;;;4.60;;
34783;SDS011;20998;51.388;7.032;2023-06-26T04:04:28;7.00;;;4.87;;
34783;SDS011;20998;51.388;7.032;2023-06-26T04:06:54;7.10;;;4.40;;
34783;SDS011;20998;51.388;7.032;2023-06-26T04:09:20;8.23;;;5.03;;
34783;SDS011;20998;51.388;7.032;2023-06-26T04:11:46;7.20;;;4.47;;
34783;SDS011;20998;51.388;7.032;2023-06-26T04:14:12;7.87;;;4.37;;
34783;SDS011;20998;51.388;7.032;2023-06-26T04:16:38;7.10;;;5.07;;
34783;SDS011;20998;51.388;7.032;2023-06-26T04:19:04;7.20;;;4.57;;
34783;SDS011;20998;51.388;7.032;2023-06-26T04:21:30;8.40;;;5.50;;
34783;SDS011;20998;51.388;7.032;2023-06-26T04:23:56;6.97;;;5.00;;
34783;SDS011;20998;51.388;7.032;2023-06-26T04:26:22;5.40;;;4.70;;
34783;SDS011;20998;51.388;7.032;2023-06-26T04:28:48;8.50;;;5.03;;
34783;SDS011;20998;51.388;7.032;2023-06-26T04:31:14;10.73;;;5.50;;
34783;SDS011;20998;51.388;7.032;2023-06-26T04:33:40;10.13;;;5.33;;
34783;SDS011;20998;51.388;7.032;2023-06-26T04:36:06;6.73;;;5.33;;
34783;SDS011;20998;51.388;7.032;2023-06-26T04:38:32;8.33;;;4.90;;
34783;SDS011;20998;51.388;7.032;2023-06-26T04:40:59;9.10;;;5.47;;
34783;SDS011;20998;51.388;7.032;2023-06-26T04:43:25;14.20;;;5.90;;
34783;SDS011;20998;51.388;7.032;2023-06-26T04:45:51;7.40;;;5.10;;
34783;SDS011;20998;51.388;7.032;2023-06-26T04:48:17;7.70;;;5.53;;
34783;SDS011;20998;51.388;7.032;2023-06-26T04:50:43;7.50;;;5.33;;
34783;SDS011;20998;51.388;7.032;2023-06-26T04:53:17;7.87;;;5.63;;
34783;SDS011;20998;51.388;7.032;2023-06-26T04:55:43;9.57;;;5.37;;
34783;SDS011;20998;51.388;7.032;2023-06-26T04:58:09;8.73;;;5.43;;
34783;SDS011;20998;51.388;7.032;2023-06-26T05:00:35;8.83;;;5.67;;
34783;SDS011;20998;51.388;7.032;2023-06-26T05:03:01;8.20;;;5.87;;
34783;SDS011;20998;51.388;7.032;2023-06-26T05:05:27;9.70;;;5.93;;
34783;SDS011;20998;51.388;7.032;2023-06-26T05:07:54;9.37;;;5.93;;
34783;SDS011;20998;51.388;7.032;2023-06-26T05:10:20;9.53;;;5.63;;
34783;SDS011;20998;51.388;7.032;2023-06-26T05:12:46;9.50;;;5.30;;
34783;SDS011;20998;51.388;7.032;2023-06-26T05:15:12;9.67;;;5.57;;
34783;SDS011;20998;51.388;7.032;2023-06-26T05:17:37;14.33;;;5.23;;
34783;SDS011;20998;51.388;7.032;2023-06-26T05:20:03;7.77;;;5.13;;
34783;SDS011;20998;51.388;7.032;2023-06-26T05:22:30;9.07;;;5.23;;
34783;SDS011;20998;51.388;7.032;2023-06-26T05:24:57;9.53;;;4.90;;
34783;SDS011;20998;51.388;7.032;2023-06-26T05:27:25;11.17;;;5.60;;
34783;SDS011;20998;51.388;7.032;2023-06-26T05:29:51;7.30;;;4.50;;
34783;SDS011;20998;51.388;7.032;2023-06-26T05:32:17;8.77;;;4.90;;
34783;SDS011;20998;51.388;7.032;2023-06-26T05:34:49;6.97;;;4.10;;
34783;SDS011;20998;51.388;7.032;2023-06-26T05:37:21;8.57;;;4.30;;
34783;SDS011;20998;51.388;7.032;2023-06-26T05:39:47;11.47;;;4.70;;
34783;SDS011;20998;51.388;7.032;2023-06-26T05:42:13;8.67;;;4.00;;
34783;SDS011;20998;51.388;7.032;2023-06-26T05:44:39;7.53;;;3.93;;
34783;SDS011;20998;51.388;7.032;2023-06-26T05:47:05;6.23;;;3.73;;
34783;SDS011;20998;51.388;7.032;2023-06-26T05:49:32;9.37;;;3.87;;
34783;SDS011;20998;51.388;7.032;2023-06-26T05:51:58;6.87;;;3.87;;
34783;SDS011;20998;51.388;7.032;2023-06-26T05:54:24;8.37;;;4.43;;
34783;SDS011;20998;51.388;7.032;2023-06-26T05:56:57;6.00;;;4.07;;
34783;SDS011;20998;51.388;7.032;2023-06-26T05:59:26;4.63;;;3.57;;
34783;SDS011;20998;51.388;7.032;2023-06-26T06:01:52;7.30;;;3.90;;
34783;SDS011;20998;51.388;7.032;2023-06-26T06:04:18;7.53;;;4.00;;
34783;SDS011;20998;51.388;7.032;2023-06-26T06:06:44;8.57;;;4.07;;
34783;SDS011;20998;51.388;7.032;2023-06-26T06:09:10;7.30;;;4.13;;
34783;SDS011;20998;51.388;7.032;2023-06-26T06:11:35;9.13;;;4.00;;
34783;SDS011;20998;51.388;7.032;2023-06-26T06:14:02;7.20;;;4.03;;
34783;SDS011;20998;51.388;7.032;2023-06-26T06:16:28;6.43;;;3.53;;
34783;SDS011;20998;51.388;7.032;2023-06-26T06:18:54;11.40;;;3.93;;
34783;SDS011;20998;51.388;7.032;2023-06-26T06:21:20;6.27;;;3.90;;
34783;SDS011;20998;51.388;7.032;2023-06-26T06:23:46;7.40;;;3.53;;
34783;SDS011;20998;51.388;7.032;2023-06-26T06:26:12;11.67;;;4.07;;
34783;SDS011;20998;51.388;7.032;2023-06-26T06:28:38;4.73;;;3.30;;
34783;SDS011;20998;51.388;7.032;2023-06-26T06:31:05;8.23;;;4.43;;
34783;SDS011;20998;51.388;7.032;2023-06-26T06:33:31;5.33;;;3.63;;
34783;SDS011;20998;51.388;7.032;2023-06-26T06:35:57;7.87;;;3.90;;
34783;SDS011;20998;51.388;7.032;2023-06-26T06:38:23;7.87;;;4.10;;
34783;SDS011;20998;51.388;7.032;2023-06-26T06:40:49;6.87;;;3.67;;
34783;SDS011;20998;51.388;7.032;2023-06-26T06:43:15;8.70;;;4.33;;
34783;SDS011;20998;51.388;7.032;2023-06-26T06:45:41;6.93;;;3.80;;
34783;SDS011;20998;51.388;7.032;2023-06-26T06:48:06;11.30;;;3.77;;
34783;SDS011;20998;51.388;7.032;2023-06-26T06:50:32;9.23;;;4.57;;
34783;SDS011;20998;51.388;7.032;2023-06-26T06:52:58;9.63;;;3.60;;
34783;SDS011;20998;51.388;7.032;2023-06-26T06:55:24;6.83;;;3.87;;
34783;SDS011;20998;51.388;7.032;2023-06-26T06:57:50;7.57;;;3.80;;
34783;SDS011;20998;51.388;7.032;2023-06-26T07:00:16;7.90;;;3.93;;
34783;SDS011;20998;51.388;7.032;2023-06-26T07:02:43;9.70;;;3.93;;
34783;SDS011;20998;51.388;7.032;2023-06-26T07:05:10;8.33;;;3.67;;
34783;SDS011;20998;51.388;7.032;2023-06-26T07:07:37;6.00;;;4.03;;
34783;SDS011;20998;51.388;7.032;2023-06-26T07:10:04;7.53;;;4.20;;
34783;SDS011;20998;51.388;7.032;2023-06-26T07:12:34;8.33;;;4.10;;
34783;SDS011;20998;51.388;7.032;2023-06-26T07:15:01;8.03;;;4.60;;
34783;SDS011;20998;51.388;7.032;2023-06-26T07:17:27;11.23;;;4.30;;
34783;SDS011;20998;51.388;7.032;2023-06-26T07:19:53;16.33;;;4.50;;
34783;SDS011;20998;51.388;7.032;2023-06-26T07:22:19;12.50;;;4.60;;
34783;SDS011;20998;51.388;7.032;2023-06-26T07:24:46;11.63;;;4.47;;
34783;SDS011;20998;51.388;7.032;2023-06-26T07:27:13;11.07;;;4.87;;
34783;SDS011;20998;51.388;7.032;2023-06-26T07:29:39;13.43;;;4.77;;
34783;SDS011;20998;51.388;7.032;2023-06-26T07:32:05;11.90;;;5.90;;
34783;SDS011;20998;51.388;7.032;2023-06-26T07:34:30;11.73;;;5.00;;
34783;SDS011;20998;51.388;7.032;2023-06-26T07:36:56;10.00;;;5.27;;
34783;SDS011;20998;51.388;7.032;2023-06-26T07:39:22;7.83;;;4.40;;
34783;SDS011;20998;51.388;7.032;2023-06-26T07:41:48;14.27;;;4.83;;
34783;SDS011;20998;51.388;7.032;2023-06-26T07:44:14;12.93;;;5.00;;
34783;SDS011;20998;51.388;7.032;2023-06-26T07:46:40;14.47;;;5.10;;
34783;SDS011;20998;51.388;7.032;2023-06-26T07:49:06;9.43;;;5.30;;
34783;SDS011;20998;51.388;7.032;2023-06-26T07:51:32;7.93;;;4.43;;
34783;SDS011;20998;51.388;7.032;2023-06-26T07:53:58;7.63;;;5.00;;
34783;SDS011;20998;51.388;7.032;2023-06-26T07:56:24;11.03;;;4.43;;
34783;SDS011;20998;51.388;7.032;2023-06-26T07:58:50;12.20;;;4.70;;
34783;SDS011;20998;51.388;7.032;2023-06-26T08:01:16;10.17;;;4.77;;
34783;SDS011;20998;51.388;7.032;2023-06-26T08:03:42;13.60;;;4.73;;
34783;SDS011;20998;51.388;7.032;2023-06-26T08:06:08;15.07;;;4.77;;
34783;SDS011;20998;51.388;7.032;2023-06-26T08:08:33;8.67;;;4.50;;
34783;SDS011;20998;51.388;7.032;2023-06-26T08:10:59;12.47;;;5.20;;
34783;SDS011;20998;51.388;7.032;2023-06-26T08:13:27;12.47;;;5.33;;
34783;SDS011;20998;51.388;7.032;2023-06-26T08:15:53;10.90;;;5.23;;
34783;SDS011;20998;51.388;7.032;2023-06-26T08:18:19;11.07;;;4.50;;
34783;SDS011;20998;51.388;7.032;2023-06-26T08:20:45;8.73;;;4.63;;
34783;SDS011;20998;51.388;7.032;2023-06-26T08:23:11;10.93;;;5.30;;
34783;SDS011;20998;51.388;7.032;2023-06-26T08:25:37;10.50;;;5.30;;
34783;SDS011;20998;51.388;7.032;2023-06-26T08:28:03;8.70;;;5.20;;
34783;SDS011;20998;51.388;7.032;2023-06-26T08:30:29;15.97;;;5.40;;
34783;SDS011;20998;51.388;7.032;2023-06-26T08:32:55;15.97;;;6.13;;
34783;SDS011;20998;51.388;7.032;2023-06-26T08:35:21;19.87;;;6.57;;
34783;SDS011;20998;51.388;7.032;2023-06-26T08:37:47;13.53;;;6.23;;
34783;SDS011;20998;51.388;7.032;2023-06-26T08:40:14;15.13;;;5.63;;
34783;SDS011;20998;51.388;7.032;2023-06-26T08:42:42;16.83;;;5.67;;
34783;SDS011;20998;51.388;7.032;2023-06-26T08:45:08;11.10;;;6.00;;
34783;SDS011;20998;51.388;7.032;2023-06-26T08:47:34;8.63;;;5.13;;
34783;SDS011;20998;51.388;7.032;2023-06-26T08:50:13;10.70;;;6.07;;
34783;SDS011;20998;51.388;7.032;2023-06-26T08:55:06;12.70;;;4.40;;
34783;SDS011;20998;51.388;7.032;2023-06-26T08:57:35;9.17;;;3.60;;
34783;SDS011;20998;51.388;7.032;2023-06-26T09:00:02;9.80;;;3.97;;
34783;SDS011;20998;51.388;7.032;2023-06-26T09:02:28;10.77;;;3.30;;
34783;SDS011;20998;51.388;7.032;2023-06-26T09:04:54;11.97;;;3.47;;
34783;SDS011;20998;51.388;7.032;2023-06-26T09:07:20;8.00;;;3.53;;
34783;SDS011;20998;51.388;7.032;2023-06-26T09:09:46;10.60;;;3.40;;
34783;SDS011;20998;51.388;7.032;2023-06-26T09:12:12;14.60;;;3.20;;
34783;SDS011;20998;51.388;7.032;2023-06-26T09:14:38;9.90;;;3.15;;
34783;SDS011;20998;51.388;7.032;2023-06-26T09:17:04;5.68;;;3.08;;
34783;SDS011;20998;51.388;7.032;2023-06-26T09:19:30;18.63;;;3.95;;
34783;SDS011;20998;51.388;7.032;2023-06-26T09:21:56;12.15;;;3.10;;
34783;SDS011;20998;51.388;7.032;2023-06-26T09:24:22;6.43;;;3.13;;
34783;SDS011;20998;51.388;7.032;2023-06-26T09:26:48;10.65;;;3.20;;
34783;SDS011;20998;51.388;7.032;2023-06-26T09:29:15;7.15;;;3.25;;
34783;SDS011;20998;51.388;7.032;2023-06-26T09:31:43;10.13;;;3.50;;
34783;SDS011;20998;51.388;7.032;2023-06-26T09:34:09;11.13;;;2.80;;
34783;SDS011;20998;51.388;7.032;2023-06-26T09:36:35;9.55;;;3.03;;
34783;SDS011;20998;51.388;7.032;2023-06-26T09:39:02;12.73;;;3.38;;
34783;SDS011;20998;51.388;7.032;2023-06-26T09:41:29;14.85;;;3.08;;
34783;SDS011;20998;51.388;7.032;2023-06-26T09:43:56;4.82;;;2.67;;
34783;SDS011;20998;51.388;7.032;2023-06-26T09:46:29;8.75;;;2.80;;
34783;SDS011;20998;51.388;7.032;2023-06-26T09:51:26;6.65;;;2.58;;
34783;SDS011;20998;51.388;7.032;2023-06-26T09:53:53;8.82;;;2.70;;
34783;SDS011;20998;51.388;7.032;2023-06-26T09:56:19;6.88;;;3.33;;
34783;SDS011;20998;51.388;7.032;2023-06-26T09:58:46;10.82;;;3.25;;
34783;SDS011;20998;51.388;7.032;2023-06-26T10:01:12;9.80;;;3.00;;
34783;SDS011;20998;51.388;7.032;2023-06-26T10:03:38;8.95;;;3.03;;
34783;SDS011;20998;51.388;7.032;2023-06-26T10:06:04;7.78;;;2.55;;
34783;SDS011;20998;51.388;7.032;2023-06-26T10:08:31;6.03;;;2.95;;
34783;SDS011;20998;51.388;7.032;2023-06-26T10:10:59;5.40;;;2.30;;
34783;SDS011;20998;51.388;7.032;2023-06-26T10:13:27;11.73;;;2.75;;
34783;SDS011;20998;51.388;7.032;2023-06-26T10:15:59;9.75;;;2.80;;
34783;SDS011;20998;51.388;7.032;2023-06-26T10:18:26;6.72;;;2.38;;
34783;SDS011;20998;51.388;7.032;2023-06-26T10:20:55;5.70;;;2.63;;
34783;SDS011;20998;51.388;7.032;2023-06-26T10:23:22;7.75;;;1.92;;
34783;SDS011;20998;51.388;7.032;2023-06-26T10:25:51;4.47;;;2.83;;
34783;SDS011;20998;51.388;7.032;2023-06-26T10:28:19;7.40;;;3.08;;
34783;SDS011;20998;51.388;7.032;2023-06-26T10:30:46;10.68;;;3.42;;
34783;SDS011;20998;51.388;7.032;2023-06-26T10:33:15;7.90;;;3.00;;
34783;SDS011;20998;51.388;7.032;2023-06-26T10:35:45;4.47;;;2.20;;
34783;SDS011;20998;51.388;7.032;2023-06-26T10:38:12;8.50;;;2.42;;
34783;SDS011;20998;51.388;7.032;2023-06-26T10:40:47;7.75;;;2.28;;
34783;SDS011;20998;51.388;7.032;2023-06-26T10:43:15;10.57;;;2.78;;
34783;SDS011;20998;51.388;7.032;2023-06-26T10:45:48;10.63;;;2.40;;
34783;SDS011;20998;51.388;7.032;2023-06-26T10:48:19;8.73;;;2.58;;
34783;SDS011;20998;51.388;7.032;2023-06-26T10:50:48;5.50;;;2.20;;
34783;SDS011;20998;51.388;7.032;2023-06-26T10:53:15;4.97;;;2.22;;
34783;SDS011;20998;51.388;7.032;2023-06-26T10:55:50;7.45;;;2.33;;
34783;SDS011;20998;51.388;7.032;2023-06-26T11:01:19;8.77;;;2.13;;
34783;SDS011;20998;51.388;7.032;2023-06-26T11:03:47;4.15;;;2.10;;
34783;SDS011;20998;51.388;7.032;2023-06-26T11:06:16;6.97;;;2.20;;
34783;SDS011;20998;51.388;7.032;2023-06-26T11:08:44;4.65;;;2.00;;
34783;SDS011;20998;51.388;7.032;2023-06-26T11:11:14;23.35;;;2.05;;
34783;SDS011;20998;51.388;7.032;2023-06-26T11:13:41;4.05;;;1.77;;
34783;SDS011;20998;51.388;7.032;2023-06-26T11:16:07;4.32;;;2.42;;
34783;SDS011;20998;51.388;7.032;2023-06-26T11:18:32;4.10;;;2.00;;
34783;SDS011;20998;51.388;7.032;2023-06-26T11:21:08;5.45;;;2.30;;
34783;SDS011;20998;51.388;7.032;2023-06-26T11:23:36;3.80;;;1.73;;
34783;SDS011;20998;51.388;7.032;2023-06-26T11:26:12;4.68;;;2.05;;
34783;SDS011;20998;51.388;7.032;2023-06-26T11:28:56;4.53;;;1.80;;
34783;SDS011;20998;51.388;7.032;2023-06-26T11:31:29;3.65;;;1.65;;
34783;SDS011;20998;51.388;7.032;2023-06-26T11:33:55;5.10;;;1.67;;
34783;SDS011;20998;51.388;7.032;2023-06-26T11:36:23;2.35;;;1.58;;
34783;SDS011;20998;51.388;7.032;2023-06-26T11:38:56;2.45;;;1.50;;
34783;SDS011;20998;51.388;7.032;2023-06-26T11:41:23;2.38;;;1.50;;
34783;SDS011;20998;51.388;7.032;2023-06-26T11:43:51;4.32;;;1.60;;
34783;SDS011;20998;51.388;7.032;2023-06-26T11:46:21;6.32;;;1.70;;
34783;SDS011;20998;51.388;7.032;2023-06-26T11:48:47;4.45;;;1.50;;
34783;SDS011;20998;51.388;7.032;2023-06-26T11:51:14;4.60;;;1.40;;
34783;SDS011;20998;51.388;7.032;2023-06-26T11:53:43;5.10;;;1.50;;
34783;SDS011;20998;51.388;7.032;2023-06-26T11:56:14;2.55;;;1.38;;
34783;SDS011;20998;51.388;7.032;2023-06-26T11:58:56;1.90;;;1.42;;
34783;SDS011;20998;51.388;7.032;2023-06-26T12:01:42;2.40;;;1.20;;
34783;SDS011;20998;51.388;7.032;2023-06-26T12:04:11;3.75;;;1.52;;
34783;SDS011;20998;51.388;7.032;2023-06-26T12:06:40;5.38;;;1.58;;
34783;SDS011;20998;51.388;7.032;2023-06-26T12:09:22;4.85;;;1.30;;
34783;SDS011;20998;51.388;7.032;2023-06-26T12:11:50;2.70;;;1.40;;
34783;SDS011;20998;51.388;7.032;2023-06-26T12:14:17;3.10;;;1.33;;
34783;SDS011;20998;51.388;7.032;2023-06-26T12:16:47;1.60;;;0.95;;
34783;SDS011;20998;51.388;7.032;2023-06-26T12:19:12;2.08;;;1.23;;
34783;SDS011;20998;51.388;7.032;2023-06-26T12:24:17;2.63;;;1.20;;
34783;SDS011;20998;51.388;7.032;2023-06-26T12:26:46;3.38;;;1.00;;
34783;SDS011;20998;51.388;7.032;2023-06-26T12:29:15;3.78;;;1.50;;
34783;SDS011;20998;51.388;7.032;2023-06-26T12:31:44;1.20;;;1.10;;
34783;SDS011;20998;51.388;7.032;2023-06-26T12:34:11;1.52;;;1.10;;
34783;SDS011;20998;51.388;7.032;2023-06-26T12:36:43;1.27;;;0.90;;
34783;SDS011;20998;51.388;7.032;2023-06-26T12:39:12;2.97;;;1.10;;
34783;SDS011;20998;51.388;7.032;2023-06-26T12:41:48;2.63;;;0.80;;
34783;SDS011;20998;51.388;7.032;2023-06-26T12:44:20;7.13;;;0.98;;
34783;SDS011;20998;51.388;7.032;2023-06-26T12:47:01;4.90;;;1.15;;
34783;SDS011;20998;51.388;7.032;2023-06-26T12:49:34;3.42;;;1.30;;
34783;SDS011;20998;51.388;7.032;2023-06-26T12:52:01;1.85;;;1.00;;
34783;SDS011;20998;51.388;7.032;2023-06-26T12:54:31;1.58;;;1.00;;
34783;SDS011;20998;51.388;7.032;2023-06-26T12:56:58;0.80;;;0.70;;
34783;SDS011;20998;51.388;7.032;2023-06-26T12:59:23;1.38;;;0.90;;
34783;SDS011;20998;51.388;7.032;2023-06-26T13:01:49;6.20;;;0.80;;
34783;SDS011;20998;51.388;7.032;2023-06-26T13:04:15;1.92;;;0.95;;
34783;SDS011;20998;51.388;7.032;2023-06-26T13:06:41;9.63;;;1.13;;
34783;SDS011;20998;51.388;7.032;2023-06-26T13:09:07;2.55;;;0.95;;
34783;SDS011;20998;51.388;7.032;2023-06-26T13:11:33;2.92;;;0.80;;
34783;SDS011;20998;51.388;7.032;2023-06-26T13:14:01;2.65;;;1.02;;
34783;SDS011;20998;51.388;7.032;2023-06-26T13:16:27;1.13;;;1.00;;
34783;SDS011;20998;51.388;7.032;2023-06-26T13:18:52;4.22;;;1.23;;
34783;SDS011;20998;51.388;7.032;2023-06-26T13:21:18;1.33;;;0.80;;
34783;SDS011;20998;51.388;7.032;2023-06-26T13:23:44;5.40;;;1.27;;
34783;SDS011;20998;51.388;7.032;2023-06-26T13:26:10;2.63;;;1.40;;
34783;SDS011;20998;51.388;7.032;2023-06-26T13:28:36;1.10;;;0.80;;
34783;SDS011;20998;51.388;7.032;2023-06-26T13:31:02;2.70;;;0.95;;
34783;SDS011;20998;51.388;7.032;2023-06-26T13:33:29;1.73;;;1.02;;
34783;SDS011;20998;51.388;7.032;2023-06-26T13:35:55;3.20;;;0.90;;
34783;SDS011;20998;51.388;7.032;2023-06-26T13:38:21;5.95;;;0.80;;
34783;SDS011;20998;51.388;7.032;2023-06-26T13:40:53;4.85;;;0.95;;
34783;SDS011;20998;51.388;7.032;2023-06-26T13:43:20;6.43;;;1.10;;
34783;SDS011;20998;51.388;7.032;2023-06-26T13:45:47;1.80;;;1.00;;
34783;SDS011;20998;51.388;7.032;2023-06-26T13:48:13;5.65;;;1.00;;
34783;SDS011;20998;51.388;7.032;2023-06-26T13:50:39;3.05;;;1.60;;
34783;SDS011;20998;51.388;7.032;2023-06-26T13:53:05;1.98;;;0.95;;
34783;SDS011;20998;51.388;7.032;2023-06-26T13:55:31;4.93;;;1.30;;
34783;SDS011;20998;51.388;7.032;2023-06-26T13:57:57;1.70;;;1.00;;
34783;SDS011;20998;51.388;7.032;2023-06-26T14:00:23;4.05;;;1.00;;
34783;SDS011;20998;51.388;7.032;2023-06-26T14:02:49;9.70;;;1.20;;
34783;SDS011;20998;51.388;7.032;2023-06-26T14:05:15;1.25;;;0.90;;
34783;SDS011;20998;51.388;7.032;2023-06-26T14:07:43;5.63;;;0.70;;
34783;SDS011;20998;51.388;7.032;2023-06-26T14:10:09;1.65;;;0.93;;
34783;SDS011;20998;51.388;7.032;2023-06-26T14:12:35;4.13;;;1.08;;
34783;SDS011;20998;51.388;7.032;2023-06-26T14:15:01;1.90;;;1.02;;
34783;SDS011;20998;51.388;7.032;2023-06-26T14:17:26;0.70;;;0.70;;
34783;SDS011;20998;51.388;7.032;2023-06-26T14:19:52;0.90;;;0.70;;
34783;SDS011;20998;51.388;7.032;2023-06-26T14:22:18;2.42;;;0.93;;
34783;SDS011;20998;51.388;7.032;2023-06-26T14:24:44;3.13;;;1.15;;
34783;SDS011;20998;51.388;7.032;2023-06-26T14:27:10;1.63;;;0.80;;
34783;SDS011;20998;51.388;7.032;2023-06-26T14:29:36;1.40;;;0.82;;
34783;SDS011;20998;51.388;7.032;2023-06-26T14:32:02;2.58;;;1.10;;
34783;SDS011;20998;51.388;7.032;2023-06-26T14:34:28;2.75;;;1.08;;
34783;SDS011;20998;51.388;7.032;2023-06-26T14:36:54;11.82;;;0.88;;
34783;SDS011;20998;51.388;7.032;2023-06-26T14:39:20;3.42;;;1.15;;
34783;SDS011;20998;51.388;7.032;2023-06-26T14:41:46;1.13;;;0.77;;
34783;SDS011;20998;51.388;7.032;2023-06-26T14:44:14;1.33;;;0.90;;
34783;SDS011;20998;51.388;7.032;2023-06-26T14:46:41;1.85;;;0.93;;
34783;SDS011;20998;51.388;7.032;2023-06-26T14:49:06;1.20;;;0.90;;
34783;SDS011;20998;51.388;7.032;2023-06-26T14:51:32;5.43;;;1.17;;
34783;SDS011;20998;51.388;7.032;2023-06-26T14:53:58;1.90;;;1.10;;
34783;SDS011;20998;51.388;7.032;2023-06-26T14:56:25;11.95;;;1.27;;
34783;SDS011;20998;51.388;7.032;2023-06-26T14:58:50;2.38;;;0.80;;
34783;SDS011;20998;51.388;7.032;2023-06-26T15:01:17;2.10;;;1.00;;